Time;durP1;ratioP1;P1;durP2;ratioP2;P2;SDS_P1;SDS_P2;PMS_P1;PMS_P2;Temp;Humidity;BMP_temperature;BMP_pressure;BME280_temperature;BME280_humidity;BME280_pressure;Samples;Min_cycle;Max_cycle;Signal;HPM_P1;HPM_P2
2022/06/08 00:00:27;;;;;;;;;;;;;;;;;;1045402;28;3842;-49
2022/06/08 00:01:14;;;;;;;;;;;;;;;;;;1044655;28;3937;-51
2022/06/08 00:01:44;;;;;;;;;;;;;;;;;;1044971;28;4090;-54
2022/06/08 00:02:15;;;;;;;;;;;;;;;;;;1043309;28;3829;-52
2022/06/08 00:02:48;;;;;;;;;;;;;;;;;;1044344;28;3849;-52
2022/06/08 00:03:21;;;;;;;;;;;;;;;;;;1045817;28;3020;-51
2022/06/08 00:03:53;;;;;;;;;;;;;;;;;;1045923;28;4133;-52
2022/06/08 00:04:23;;;;;;;;;;;;;;;;;;1045455;28;3938;-52
2022/06/08 00:04:54;;;;;;;;;;;;;;;;;;1045760;28;3959;-50
2022/06/08 00:05:25;;;;;;;;;;;;;;;;;;1045985;28;2732;-54
2022/06/08 00:05:55;;;;;;;;;;;;;;;;;;1041111;28;3882;-53
2022/06/08 00:06:25;;;;;;;;;;;;;;;;;;1041374;28;3183;-53
2022/06/08 00:06:56;;;;;;;;;;;;;;;;;;1039634;28;4061;-53
2022/06/08 00:07:32;;;;;;;;;;;;;;;;;;1041288;28;4188;-53
2022/06/08 00:08:02;;;;;;;;;;;;;;;;;;1043565;28;1917;-52
2022/06/08 00:08:33;;;;;;;;;;;;;;;;;;1045304;28;5166;-52
2022/06/08 00:09:03;;;;;;;;;;;;;;;;;;1045194;28;2870;-52
2022/06/08 00:09:34;;;;;;;;;;;;;;;;;;1045991;28;3927;-53
2022/06/08 00:10:04;;;;;;;;;;;;;;;;;;1047550;28;1601;-49
2022/06/08 00:10:35;;;;;;;;;;;;;;;;;;1045260;28;4059;-52
2022/06/08 00:11:05;;;;;;;;;;;;;;;;;;1046122;28;1589;-55
2022/06/08 00:11:36;;;;;;;;;;;;;;;;;;1041536;28;3846;-51
2022/06/08 00:12:06;;;;;;;;;;;;;;;;;;1042183;28;2600;-52
2022/06/08 00:12:37;;;;;;;;;;;;;;;;;;1041284;28;4260;-53
2022/06/08 00:13:08;;;;;;;;;;;;;;;;;;1041779;28;1603;-50
2022/06/08 00:13:38;;;;;;;;;;;;;;;;;;1044750;28;4211;-52
2022/06/08 00:14:08;;;;;;;;;;;;;;;;;;1045975;28;3667;-51
2022/06/08 00:14:39;;;;;;;;;;;;;;;;;;1045362;28;3919;-54
2022/06/08 00:15:10;;;;;;;;;;;;;;;;;;1045391;28;3331;-51
2022/06/08 00:15:41;;;;;;;;;;;;;;;;;;1043230;28;3904;-52
2022/06/08 00:16:11;;;;;;;;;;;;;;;;;;1045360;28;3799;-50
2022/06/08 00:16:42;;;;;;;;;;;;;;;;;;1044577;28;3994;-52
2022/06/08 00:17:12;;;;;;;;;;;;;;;;;;1045153;28;3619;-53
2022/06/08 00:17:42;;;;;;;;;;;;;;;;;;1045798;28;4388;-53
2022/06/08 00:18:12;;;;;;;;;;;;;;;;;;1046072;28;2628;-51
2022/06/08 00:18:44;;;;;;;;;;;;;;;;;;1045110;28;3876;-52
2022/06/08 00:19:14;;;;;;;;;;;;;;;;;;1045923;28;2879;-56
2022/06/08 00:19:45;;;;;;;;;;;;;;;;;;1045680;28;4237;-50
2022/06/08 00:20:15;;;;;;;;;;;;;;;;;;1046852;28;1624;-51
2022/06/08 00:20:45;;;;;;;;;;;;;;;;;;1045690;28;3970;-51
2022/06/08 00:21:16;;;;;;;;;;;;;;;;;;1046698;28;1915;-52
2022/06/08 00:21:46;;;;;;;;;;;;;;;;;;1045270;28;3808;-53
2022/06/08 00:22:17;;;;;;;;;;;;;;;;;;1046425;28;3790;-52
2022/06/08 00:22:48;;;;;;;;;;;;;;;;;;1045578;28;3890;-54
2022/06/08 00:23:18;;;;;;;;;;;;;;;;;;1046236;28;2820;-53
2022/06/08 00:23:48;;;;;;;;;;;;;;;;;;1046379;28;3886;-53
2022/06/08 00:24:19;;;;;;;;;;;;;;;;;;1045170;28;2934;-52
2022/06/08 00:24:49;;;;;;;;;;;;;;;;;;1045185;28;4171;-53
2022/06/08 00:25:20;;;;;;;;;;;;;;;;;;1045778;28;2714;-51
2022/06/08 00:25:50;;;;;;;;;;;;;;;;;;1045230;28;4027;-51
2022/06/08 00:26:20;;;;;;;;;;;;;;;;;;1045273;28;3620;-52
2022/06/08 00:26:51;;;;;;;;;;;;;;;;;;1043444;28;4053;-55
2022/06/08 00:27:21;;;;;;;;;;;;;;;;;;1044868;28;2368;-52
2022/06/08 00:27:51;;;;;;;;;;;;;;;;;;1045728;28;3844;-52
2022/06/08 00:28:22;;;;;;;;;;;;;;;;;;1045010;28;3617;-51
2022/06/08 00:28:52;;;;;;;;;;;;;;;;;;1041448;28;4046;-53
2022/06/08 00:29:23;;;;;;;;;;;;;;;;;;1037802;28;3076;-51
2022/06/08 00:29:53;;;;;;;;;;;;;;;;;;1037517;28;4344;-53
2022/06/08 00:30:38;;;;;;;;;;;;;;;;;;1036354;28;2644;-54
2022/06/08 00:31:15;;;;;;;;;;;;;;;;;;1040167;28;3970;-54
2022/06/08 00:31:45;;;;;;;;;;;;;;;;;;1040934;28;3993;-50
2022/06/08 00:32:15;;;;;;;;;;;;;;;;;;1041088;28;4032;-52
2022/06/08 00:32:46;;;;;;;;;;;;;;;;;;1041053;28;4061;-53
2022/06/08 00:33:16;;;;;;;;;;;;;;;;;;1042791;28;1666;-53
2022/06/08 00:33:46;;;;;;;;;;;;;;;;;;1042168;28;4024;-51
2022/06/08 00:34:17;;;;;;;;;;;;;;;;;;1041964;28;2930;-50
2022/06/08 00:34:47;;;;;;;;;;;;;;;;;;1041427;28;4133;-49
2022/06/08 00:35:17;;;;;;;;;;;;;;;;;;1041090;28;2729;-53
2022/06/08 00:35:47;;;;;;;;;;;;;;;;;;1039942;28;4065;-50
2022/06/08 00:36:17;;;;;;;;;;;;;;;;;;1041949;28;3911;-51
2022/06/08 00:36:48;;;;;;;;;;;;;;;;;;1041749;28;3923;-54
2022/06/08 00:37:19;;;;;;;;;;;;;;;;;;1041453;28;3714;-53
2022/06/08 00:37:49;;;;;;;;;;;;;;;;;;1038834;28;4327;-50
2022/06/08 00:38:20;;;;;;;;;;;;;;;;;;1041737;28;1940;-51
2022/06/08 00:38:50;;;;;;;;;;;;;;;;;;1041179;28;3851;-50
2022/06/08 00:39:20;;;;;;;;;;;;;;;;;;1041660;28;1996;-53
2022/06/08 00:39:50;;;;;;;;;;;;;;;;;;1045312;28;4020;-52
2022/06/08 00:40:23;;;;;;;;;;;;;;;;;;1041213;28;3049;-49
2022/06/08 00:41:23;;;;;;;;;;;;;;;;;;1042087;28;3958;-51
2022/06/08 00:41:57;;;;;;;;;;;;;;;;;;1028620;28;4074;-52
2022/06/08 00:42:27;;;;;;;;;;;;;;;;;;1041603;28;2442;-54
2022/06/08 00:42:57;;;;;;;;;;;;;;;;;;1041580;28;3877;-54
2022/06/08 00:43:27;;;;;;;;;;;;;;;;;;1042168;28;1345;-51
2022/06/08 00:43:59;;;;;;;;;;;;;;;;;;1042012;28;3989;-53
2022/06/08 00:44:33;;;;;;;;;;;;;;;;;;1042235;28;2682;-49
2022/06/08 00:45:06;;;;;;;;;;;;;;;;;;1041368;28;4022;-50
2022/06/08 00:45:36;;;;;;;;;;;;;;;;;;1040650;28;4830;-50
2022/06/08 00:46:08;;;;;;;;;;;;;;;;;;1040935;28;4167;-53
2022/06/08 00:46:39;;;;;;;;;;;;;;;;;;1041512;28;4215;-49
2022/06/08 00:47:11;;;;;;;;;;;;;;;;;;1041307;28;2611;-53
2022/06/08 00:47:43;;;;;;;;;;;;;;;;;;1041677;28;3917;-51
2022/06/08 00:48:14;;;;;;;;;;;;;;;;;;1040153;28;2971;-52
2022/06/08 00:48:48;;;;;;;;;;;;;;;;;;1040754;28;3986;-52
2022/06/08 00:49:22;;;;;;;;;;;;;;;;;;1042254;28;2046;-50
2022/06/08 00:49:54;;;;;;;;;;;;;;;;;;1042185;28;4144;-49
2022/06/08 00:50:35;;;;;;;;;;;;;;;;;;1040133;28;4214;-54
2022/06/08 00:51:06;;;;;;;;;;;;;;;;;;1041348;28;4109;-52
2022/06/08 00:51:36;;;;;;;;;;;;;;;;;;1041790;28;3896;-51
2022/06/08 00:52:06;;;;;;;;;;;;;;;;;;1042537;28;1749;-51
2022/06/08 00:52:37;;;;;;;;;;;;;;;;;;1042231;28;3908;-52
2022/06/08 00:53:09;;;;;;;;;;;;;;;;;;1040904;28;3688;-54
2022/06/08 00:53:43;;;;;;;;;;;;;;;;;;1036604;28;4060;-52
2022/06/08 00:54:17;;;;;;;;;;;;;;;;;;1038412;28;2886;-52
2022/06/08 00:54:50;;;;;;;;;;;;;;;;;;1038765;28;3914;-52
2022/06/08 00:55:23;;;;;;;;;;;;;;;;;;1041043;28;3634;-54
2022/06/08 00:55:55;;;;;;;;;;;;;;;;;;1041439;28;4328;-53
2022/06/08 00:56:27;;;;;;;;;;;;;;;;;;1042097;28;2967;-54
2022/06/08 00:57:00;;;;;;;;;;;;;;;;;;1041248;28;3973;-51
2022/06/08 00:57:36;;;;;;;;;;;;;;;;;;1041286;28;2388;-52
2022/06/08 00:58:26;;;;;;;;;;;;;;;;;;1041829;28;3945;-51
2022/06/08 00:58:58;;;;;;;;;;;;;;;;;;1038946;28;4022;-53
2022/06/08 00:59:28;;;;;;;;;;;;;;;;;;1040552;28;3796;-53
2022/06/08 01:00:08;;;;;;;;;;;;;;;;;;1040200;28;4001;-53
2022/06/08 01:00:40;;;;;;;;;;;;;;;;;;1040121;28;4070;-53
2022/06/08 01:01:11;;;;;;;;;;;;;;;;;;1040124;28;3578;-51
2022/06/08 01:01:42;;;;;;;;;;;;;;;;;;1040963;28;4014;-52
2022/06/08 01:02:12;;;;;;;;;;;;;;;;;;1042171;28;2774;-52
2022/06/08 01:02:42;;;;;;;;;;;;;;;;;;1041947;28;3894;-50
2022/06/08 01:03:14;;;;;;;;;;;;;;;;;;1041293;28;1590;-51
2022/06/08 01:03:44;;;;;;;;;;;;;;;;;;1041055;28;3960;-53
2022/06/08 01:04:16;;;;;;;;;;;;;;;;;;1041450;28;3527;-53
2022/06/08 01:04:46;;;;;;;;;;;;;;;;;;1041294;28;4097;-52
2022/06/08 01:05:31;;;;;;;;;;;;;;;;;;1041124;28;2484;-53
2022/06/08 01:06:03;;;;;;;;;;;;;;;;;;1039836;28;3818;-52
2022/06/08 01:06:33;;;;;;;;;;;;;;;;;;1042041;28;4085;-54
2022/06/08 01:07:04;;;;;;;;;;;;;;;;;;1041070;28;2927;-52
2022/06/08 01:07:41;;;;;;;;;;;;;;;;;;1041211;28;4318;-53
2022/06/08 01:08:14;;;;;;;;;;;;;;;;;;1042324;28;2912;-50
2022/06/08 01:08:49;;;;;;;;;;;;;;;;;;1041497;28;3915;-49
2022/06/08 01:09:32;;;;;;;;;;;;;;;;;;1042130;28;1600;-49
2022/06/08 01:10:02;;;;;;;;;;;;;;;;;;1041453;28;4012;-51
2022/06/08 01:10:37;;;;;;;;;;;;;;;;;;1041680;28;4070;-51
2022/06/08 01:11:13;;;;;;;;;;;;;;;;;;1040499;28;3473;-49
2022/06/08 01:11:44;;;;;;;;;;;;;;;;;;1040700;28;3961;-50
2022/06/08 01:12:17;;;;;;;;;;;;;;;;;;1041866;28;1577;-49
2022/06/08 01:12:48;;;;;;;;;;;;;;;;;;1042015;28;3883;-54
2022/06/08 01:13:18;;;;;;;;;;;;;;;;;;1041724;28;2033;-53
2022/06/08 01:13:49;;;;;;;;;;;;;;;;;;1045027;28;4116;-51
2022/06/08 01:14:19;;;;;;;;;;;;;;;;;;1044396;28;3969;-49
2022/06/08 01:14:50;;;;;;;;;;;;;;;;;;1045581;28;3928;-53
2022/06/08 01:15:22;;;;;;;;;;;;;;;;;;1040530;28;2083;-50
2022/06/08 01:15:52;;;;;;;;;;;;;;;;;;1040850;28;3945;-49
2022/06/08 01:16:22;;;;;;;;;;;;;;;;;;1040201;28;3797;-51
2022/06/08 01:16:59;;;;;;;;;;;;;;;;;;1041649;28;5032;-53
2022/06/08 01:17:29;;;;;;;;;;;;;;;;;;1041346;28;2323;-52
2022/06/08 01:17:59;;;;;;;;;;;;;;;;;;1041377;28;3893;-50
2022/06/08 01:18:31;;;;;;;;;;;;;;;;;;1042422;28;2829;-55
2022/06/08 01:19:02;;;;;;;;;;;;;;;;;;1041455;28;4024;-51
2022/06/08 01:19:36;;;;;;;;;;;;;;;;;;1041918;28;3913;-53
2022/06/08 01:20:07;;;;;;;;;;;;;;;;;;1041127;28;3046;-48
2022/06/08 01:20:45;;;;;;;;;;;;;;;;;;1042321;28;4079;-49
2022/06/08 01:21:18;;;;;;;;;;;;;;;;;;1041168;28;3984;-54
2022/06/08 01:21:53;;;;;;;;;;;;;;;;;;1040942;28;4037;-55
2022/06/08 01:22:23;;;;;;;;;;;;;;;;;;1041263;28;2717;-52
2022/06/08 01:22:53;;;;;;;;;;;;;;;;;;1040841;28;4124;-52
2022/06/08 01:23:30;;;;;;;;;;;;;;;;;;1040914;28;2228;-54
2022/06/08 01:24:01;;;;;;;;;;;;;;;;;;1040812;28;4040;-52
2022/06/08 01:24:33;;;;;;;;;;;;;;;;;;1041699;28;4079;-55
2022/06/08 01:25:04;;;;;;;;;;;;;;;;;;1041476;28;3119;-48
2022/06/08 01:25:37;;;;;;;;;;;;;;;;;;1039561;28;4064;-53
2022/06/08 01:26:19;;;;;;;;;;;;;;;;;;1041021;28;3761;-51
2022/06/08 01:27:02;;;;;;;;;;;;;;;;;;1039495;28;4417;-49
2022/06/08 01:27:38;;;;;;;;;;;;;;;;;;1040703;28;3958;-52
2022/06/08 01:28:12;;;;;;;;;;;;;;;;;;1041668;28;2908;-55
2022/06/08 01:28:57;;;;;;;;;;;;;;;;;;1041827;28;4035;-52
2022/06/08 01:29:31;;;;;;;;;;;;;;;;;;1045956;28;2301;-53
2022/06/08 01:30:01;;;;;;;;;;;;;;;;;;1044705;28;4007;-51
2022/06/08 01:30:59;;;;;;;;;;;;;;;;;;1044450;28;4099;-49
2022/06/08 01:31:54;;;;;;;;;;;;;;;;;;1041194;28;3906;-50
2022/06/08 01:32:25;;;;;;;;;;;;;;;;;;1041166;28;2740;-50
2022/06/08 01:33:21;;;;;;;;;;;;;;;;;;1040091;28;3844;-51
2022/06/08 01:34:05;;;;;;;;;;;;;;;;;;1028632;28;3875;-50
2022/06/08 01:34:54;;;;;;;;;;;;;;;;;;1033924;28;4083;-52
2022/06/08 01:35:42;;;;;;;;;;;;;;;;;;1040228;28;2805;-54
2022/06/08 01:36:13;;;;;;;;;;;;;;;;;;1040393;28;3733;-52
2022/06/08 01:36:49;;;;;;;;;;;;;;;;;;1042119;28;3791;-51
2022/06/08 01:37:33;;;;;;;;;;;;;;;;;;1041771;28;2183;-50
2022/06/08 01:38:03;;;;;;;;;;;;;;;;;;1041137;28;3992;-51
2022/06/08 01:38:36;;;;;;;;;;;;;;;;;;1041651;28;4063;-51
2022/06/08 01:39:17;;;;;;;;;;;;;;;;;;1042301;28;1404;-47
2022/06/08 01:39:57;;;;;;;;;;;;;;;;;;1039812;28;3930;-51
2022/06/08 01:40:33;;;;;;;;;;;;;;;;;;1042237;28;2982;-56
2022/06/08 01:41:04;;;;;;;;;;;;;;;;;;1040419;28;3968;-54
2022/06/08 01:41:53;;;;;;;;;;;;;;;;;;1041757;28;4134;-51
2022/06/08 01:42:23;;;;;;;;;;;;;;;;;;1045774;28;2066;-52
2022/06/08 01:43:02;;;;;;;;;;;;;;;;;;1044079;28;4137;-53
2022/06/08 01:43:51;;;;;;;;;;;;;;;;;;1044303;28;4062;-50
2022/06/08 01:44:27;;;;;;;;;;;;;;;;;;1041073;28;3094;-52
2022/06/08 01:46:05;;;;;;;;;;;;;;;;;;1041641;28;3785;-51
2022/06/08 01:46:39;;;;;;;;;;;;;;;;;;1040992;28;4466;-53
2022/06/08 01:47:13;;;;;;;;;;;;;;;;;;1041006;28;3813;-51
2022/06/08 01:47:52;;;;;;;;;;;;;;;;;;1040904;28;3875;-51
2022/06/08 01:48:22;;;;;;;;;;;;;;;;;;1041770;28;1649;-52
2022/06/08 01:48:59;;;;;;;;;;;;;;;;;;1041289;28;4054;-51
2022/06/08 01:49:48;;;;;;;;;;;;;;;;;;1039598;28;3877;-51
2022/06/08 01:50:22;;;;;;;;;;;;;;;;;;1041119;28;3896;-51
2022/06/08 01:51:01;;;;;;;;;;;;;;;;;;1041378;28;3927;-55
2022/06/08 01:51:40;;;;;;;;;;;;;;;;;;1040573;28;3916;-52
2022/06/08 01:52:20;;;;;;;;;;;;;;;;;;1041911;28;2328;-51
2022/06/08 01:52:59;;;;;;;;;;;;;;;;;;1044790;28;4181;-54
2022/06/08 01:53:47;;;;;;;;;;;;;;;;;;1045592;28;1916;-51
2022/06/08 01:54:20;;;;;;;;;;;;;;;;;;1045602;28;4057;-52
2022/06/08 01:54:57;;;;;;;;;;;;;;;;;;1041967;28;3968;-54
2022/06/08 01:55:46;;;;;;;;;;;;;;;;;;1039893;28;3846;-51
2022/06/08 01:56:42;;;;;;;;;;;;;;;;;;1041295;28;3665;-51
2022/06/08 01:57:31;;;;;;;;;;;;;;;;;;1041439;28;5201;-52
2022/06/08 01:58:05;;;;;;;;;;;;;;;;;;1039839;28;4017;-53
2022/06/08 01:58:38;;;;;;;;;;;;;;;;;;1040945;28;4084;-53
2022/06/08 01:59:11;;;;;;;;;;;;;;;;;;1041126;28;1696;-52
2022/06/08 02:00:08;;;;;;;;;;;;;;;;;;1041093;28;4122;-52
2022/06/08 02:00:42;;;;;;;;;;;;;;;;;;1040041;28;3972;-52
2022/06/08 02:01:16;;;;;;;;;;;;;;;;;;1040543;28;2355;-53
2022/06/08 02:01:58;;;;;;;;;;;;;;;;;;1040795;28;3887;-51
2022/06/08 02:02:38;;;;;;;;;;;;;;;;;;1040843;28;4031;-50
2022/06/08 02:03:14;;;;;;;;;;;;;;;;;;1041335;28;3848;-51
2022/06/08 02:04:03;;;;;;;;;;;;;;;;;;1036804;28;3780;-51
2022/06/08 02:04:40;;;;;;;;;;;;;;;;;;1039309;28;3808;-53
2022/06/08 02:05:11;;;;;;;;;;;;;;;;;;1039456;28;2485;-50
2022/06/08 02:05:41;;;;;;;;;;;;;;;;;;1038509;28;4099;-52
2022/06/08 02:06:17;;;;;;;;;;;;;;;;;;1040514;28;2732;-51
2022/06/08 02:06:52;;;;;;;;;;;;;;;;;;1041774;28;3889;-52
2022/06/08 02:07:23;;;;;;;;;;;;;;;;;;1040870;28;2713;-52
2022/06/08 02:07:57;;;;;;;;;;;;;;;;;;1040365;28;4229;-52
2022/06/08 02:08:36;;;;;;;;;;;;;;;;;;1040479;28;2161;-51
2022/06/08 02:09:15;;;;;;;;;;;;;;;;;;1039656;28;3936;-51
2022/06/08 02:09:52;;;;;;;;;;;;;;;;;;1041601;28;4025;-51
2022/06/08 02:10:31;;;;;;;;;;;;;;;;;;1040841;28;2709;-51
2022/06/08 02:11:20;;;;;;;;;;;;;;;;;;1042239;28;3666;-52
2022/06/08 02:11:55;;;;;;;;;;;;;;;;;;1041005;28;4176;-53
2022/06/08 02:12:26;;;;;;;;;;;;;;;;;;1040721;28;3470;-52
2022/06/08 02:13:04;;;;;;;;;;;;;;;;;;1041627;28;4775;-51
2022/06/08 02:13:41;;;;;;;;;;;;;;;;;;1040239;28;4051;-53
2022/06/08 02:14:14;;;;;;;;;;;;;;;;;;1041065;28;2051;-51
2022/06/08 02:14:58;;;;;;;;;;;;;;;;;;1041730;28;3931;-49
2022/06/08 02:15:32;;;;;;;;;;;;;;;;;;1038159;28;4394;-51
2022/06/08 02:16:26;;;;;;;;;;;;;;;;;;1041455;28;3943;-52
2022/06/08 02:17:15;;;;;;;;;;;;;;;;;;1028732;28;3950;-53
2022/06/08 02:17:51;;;;;;;;;;;;;;;;;;1037749;28;4018;-50
2022/06/08 02:18:28;;;;;;;;;;;;;;;;;;1040525;28;3589;-53
2022/06/08 02:19:01;;;;;;;;;;;;;;;;;;1041335;28;3794;-53
2022/06/08 02:19:42;;;;;;;;;;;;;;;;;;1039693;28;3838;-52
2022/06/08 02:20:16;;;;;;;;;;;;;;;;;;1042254;28;4148;-51
2022/06/08 02:20:56;;;;;;;;;;;;;;;;;;1041300;28;3806;-49
2022/06/08 02:21:41;;;;;;;;;;;;;;;;;;1042300;28;2765;-53
2022/06/08 02:22:18;;;;;;;;;;;;;;;;;;1040966;28;3916;-51
2022/06/08 02:22:55;;;;;;;;;;;;;;;;;;1041342;28;3963;-50
2022/06/08 02:23:28;;;;;;;;;;;;;;;;;;1042478;28;1550;-51
2022/06/08 02:24:05;;;;;;;;;;;;;;;;;;1040900;28;3822;-53
2022/06/08 02:24:41;;;;;;;;;;;;;;;;;;1040904;28;3933;-50
2022/06/08 02:25:14;;;;;;;;;;;;;;;;;;1040207;28;3821;-49
2022/06/08 02:25:54;;;;;;;;;;;;;;;;;;1039778;28;4204;-50
2022/06/08 02:26:36;;;;;;;;;;;;;;;;;;1041251;28;1707;-50
2022/06/08 02:27:19;;;;;;;;;;;;;;;;;;1041446;28;3794;-49
2022/06/08 02:27:56;;;;;;;;;;;;;;;;;;1041078;28;3906;-50
2022/06/08 02:28:33;;;;;;;;;;;;;;;;;;1040853;28;2397;-51
2022/06/08 02:29:18;;;;;;;;;;;;;;;;;;1041138;28;3855;-51
2022/06/08 02:30:10;;;;;;;;;;;;;;;;;;1041770;28;3894;-51
2022/06/08 02:30:56;;;;;;;;;;;;;;;;;;1042220;28;3986;-46
2022/06/08 02:31:37;;;;;;;;;;;;;;;;;;1044981;28;4225;-48
2022/06/08 02:34:49;;;;;;;;;;;;;;;;;;1045550;28;3888;-48
2022/06/08 02:35:21;;;;;;;;;;;;;;;;;;1045009;28;3832;-49
2022/06/08 02:35:54;;;;;;;;;;;;;;;;;;1042876;28;4104;-51
2022/06/08 02:36:27;;;;;;;;;;;;;;;;;;1044675;28;1945;-51
2022/06/08 02:37:04;;;;;;;;;;;;;;;;;;1046128;28;3840;-50
2022/06/08 02:37:35;;;;;;;;;;;;;;;;;;1043800;28;4150;-51
2022/06/08 02:38:10;;;;;;;;;;;;;;;;;;1046612;28;1652;-52
2022/06/08 02:38:43;;;;;;;;;;;;;;;;;;1042705;28;3980;-50
2022/06/08 02:39:16;;;;;;;;;;;;;;;;;;1045994;28;2923;-51
2022/06/08 02:39:46;;;;;;;;;;;;;;;;;;1045608;28;4183;-50
2022/06/08 02:40:19;;;;;;;;;;;;;;;;;;1046566;28;1668;-49
2022/06/08 02:40:51;;;;;;;;;;;;;;;;;;1045630;28;3916;-48
2022/06/08 02:41:24;;;;;;;;;;;;;;;;;;1045295;28;2811;-51
2022/06/08 02:41:58;;;;;;;;;;;;;;;;;;1045378;28;3885;-50
2022/06/08 02:42:33;;;;;;;;;;;;;;;;;;1045087;28;2048;-48
2022/06/08 02:43:10;;;;;;;;;;;;;;;;;;1043733;28;4129;-52
2022/06/08 02:43:42;;;;;;;;;;;;;;;;;;1045175;28;4057;-50
2022/06/08 02:44:15;;;;;;;;;;;;;;;;;;1046539;28;1912;-48
2022/06/08 02:44:47;;;;;;;;;;;;;;;;;;1044594;28;3892;-50
2022/06/08 02:45:20;;;;;;;;;;;;;;;;;;1044421;28;3397;-50
2022/06/08 02:46:09;;;;;;;;;;;;;;;;;;1045526;28;3842;-50
2022/06/08 02:46:49;;;;;;;;;;;;;;;;;;1046482;28;3844;-48
2022/06/08 02:47:29;;;;;;;;;;;;;;;;;;1046075;28;2670;-51
2022/06/08 02:48:04;;;;;;;;;;;;;;;;;;1044307;28;3838;-53
2022/06/08 02:48:34;;;;;;;;;;;;;;;;;;1044473;28;3916;-49
2022/06/08 02:49:05;;;;;;;;;;;;;;;;;;1045080;28;2113;-51
2022/06/08 02:49:36;;;;;;;;;;;;;;;;;;1040511;28;4232;-50
2022/06/08 02:50:11;;;;;;;;;;;;;;;;;;1037745;28;1866;-48
2022/06/08 02:50:54;;;;;;;;;;;;;;;;;;1037388;28;3818;-51
2022/06/08 02:51:27;;;;;;;;;;;;;;;;;;1042882;28;1298;-51
2022/06/08 02:52:03;;;;;;;;;;;;;;;;;;1046204;28;3979;-50
2022/06/08 02:52:33;;;;;;;;;;;;;;;;;;1046404;28;4133;-53
2022/06/08 02:53:07;;;;;;;;;;;;;;;;;;1046078;28;1376;-51
2022/06/08 02:53:44;;;;;;;;;;;;;;;;;;1045295;28;3924;-49
2022/06/08 02:54:17;;;;;;;;;;;;;;;;;;1045402;28;2891;-51
2022/06/08 02:54:49;;;;;;;;;;;;;;;;;;1044463;28;4109;-52
2022/06/08 02:55:29;;;;;;;;;;;;;;;;;;1041113;28;1853;-51
2022/06/08 02:56:05;;;;;;;;;;;;;;;;;;1041589;28;4081;-48
2022/06/08 02:56:45;;;;;;;;;;;;;;;;;;1041542;28;3957;-51
2022/06/08 02:57:30;;;;;;;;;;;;;;;;;;1044050;28;2792;-50
2022/06/08 02:58:05;;;;;;;;;;;;;;;;;;1044984;28;3952;-49
2022/06/08 02:58:39;;;;;;;;;;;;;;;;;;1045111;28;4137;-52
2022/06/08 02:59:30;;;;;;;;;;;;;;;;;;1040572;28;3895;-50
2022/06/08 03:00:05;;;;;;;;;;;;;;;;;;1027132;28;4053;-51
2022/06/08 03:00:39;;;;;;;;;;;;;;;;;;1023161;28;3881;-51
2022/06/08 03:01:12;;;;;;;;;;;;;;;;;;1038822;28;2934;-51
2022/06/08 03:01:46;;;;;;;;;;;;;;;;;;1040655;28;3969;-50
2022/06/08 03:02:22;;;;;;;;;;;;;;;;;;1042284;28;3936;-52
2022/06/08 03:03:07;;;;;;;;;;;;;;;;;;1044846;28;3890;-52
2022/06/08 03:03:48;;;;;;;;;;;;;;;;;;1044628;28;5280;-51
2022/06/08 03:04:23;;;;;;;;;;;;;;;;;;1045089;28;2264;-51
2022/06/08 03:05:13;;;;;;;;;;;;;;;;;;1045356;28;4144;-53
2022/06/08 03:05:43;;;;;;;;;;;;;;;;;;1033477;28;4082;-52
2022/06/08 03:06:17;;;;;;;;;;;;;;;;;;1045769;28;2926;-48
2022/06/08 03:06:52;;;;;;;;;;;;;;;;;;1045790;28;4150;-50
2022/06/08 03:07:25;;;;;;;;;;;;;;;;;;1040786;28;2429;-51
2022/06/08 03:08:00;;;;;;;;;;;;;;;;;;1040993;28;3845;-49
2022/06/08 03:08:32;;;;;;;;;;;;;;;;;;1040274;28;2646;-49
2022/06/08 03:09:05;;;;;;;;;;;;;;;;;;1042572;28;3701;-52
2022/06/08 03:09:35;;;;;;;;;;;;;;;;;;1044506;28;4217;-52
2022/06/08 03:10:07;;;;;;;;;;;;;;;;;;1043481;28;3856;-50
2022/06/08 03:10:40;;;;;;;;;;;;;;;;;;1045642;28;3938;-52
2022/06/08 03:11:10;;;;;;;;;;;;;;;;;;1046331;28;1698;-49
2022/06/08 03:11:43;;;;;;;;;;;;;;;;;;1044773;28;3924;-51
2022/06/08 03:12:20;;;;;;;;;;;;;;;;;;1046237;28;1220;-48
2022/06/08 03:13:14;;;;;;;;;;;;;;;;;;1044927;28;3928;-50
2022/06/08 03:13:48;;;;;;;;;;;;;;;;;;1044545;28;3910;-50
2022/06/08 03:14:18;;;;;;;;;;;;;;;;;;1044491;28;2802;-50
2022/06/08 03:14:49;;;;;;;;;;;;;;;;;;1040901;28;3989;-51
2022/06/08 03:15:23;;;;;;;;;;;;;;;;;;1040465;28;3001;-51
2022/06/08 03:15:55;;;;;;;;;;;;;;;;;;1040865;28;3901;-54
2022/06/08 03:16:27;;;;;;;;;;;;;;;;;;1042466;28;1725;-51
2022/06/08 03:17:02;;;;;;;;;;;;;;;;;;1044507;28;3952;-50
2022/06/08 03:17:33;;;;;;;;;;;;;;;;;;1045281;28;4709;-50
2022/06/08 03:18:03;;;;;;;;;;;;;;;;;;1045533;28;2697;-50
2022/06/08 03:18:34;;;;;;;;;;;;;;;;;;1045131;28;4094;-51
2022/06/08 03:19:05;;;;;;;;;;;;;;;;;;1041029;28;4174;-48
2022/06/08 03:19:36;;;;;;;;;;;;;;;;;;1036321;28;3914;-53
2022/06/08 03:20:08;;;;;;;;;;;;;;;;;;1037574;28;1547;-52
2022/06/08 03:20:39;;;;;;;;;;;;;;;;;;1036695;28;4025;-52
2022/06/08 03:21:09;;;;;;;;;;;;;;;;;;1042355;28;3034;-49
2022/06/08 03:21:40;;;;;;;;;;;;;;;;;;1044925;28;3846;-50
2022/06/08 03:22:10;;;;;;;;;;;;;;;;;;1046103;28;1881;-50
2022/06/08 03:22:40;;;;;;;;;;;;;;;;;;1044769;28;4041;-50
2022/06/08 03:23:11;;;;;;;;;;;;;;;;;;1046022;28;1845;-49
2022/06/08 03:23:41;;;;;;;;;;;;;;;;;;1044746;28;4064;-49
2022/06/08 03:24:11;;;;;;;;;;;;;;;;;;1045010;28;2195;-51
2022/06/08 03:24:42;;;;;;;;;;;;;;;;;;1045593;28;3869;-49
2022/06/08 03:25:13;;;;;;;;;;;;;;;;;;1045412;28;2844;-52
2022/06/08 03:25:43;;;;;;;;;;;;;;;;;;1044932;28;4135;-51
2022/06/08 03:26:14;;;;;;;;;;;;;;;;;;1044703;28;2943;-54
2022/06/08 03:26:47;;;;;;;;;;;;;;;;;;1045905;28;4013;-52
2022/06/08 03:27:17;;;;;;;;;;;;;;;;;;1045754;28;1969;-51
2022/06/08 03:27:48;;;;;;;;;;;;;;;;;;1045362;28;3799;-52
2022/06/08 03:28:18;;;;;;;;;;;;;;;;;;1044980;28;3347;-49
2022/06/08 03:28:48;;;;;;;;;;;;;;;;;;1043713;28;3915;-51
2022/06/08 03:29:19;;;;;;;;;;;;;;;;;;1044690;28;3994;-48
2022/06/08 03:29:49;;;;;;;;;;;;;;;;;;1045641;28;3806;-50
2022/06/08 03:30:20;;;;;;;;;;;;;;;;;;1040171;28;2196;-52
2022/06/08 03:31:04;;;;;;;;;;;;;;;;;;1040391;28;3929;-50
2022/06/08 03:31:41;;;;;;;;;;;;;;;;;;1039697;28;3820;-51
2022/06/08 03:32:12;;;;;;;;;;;;;;;;;;1044059;28;3143;-50
2022/06/08 03:32:42;;;;;;;;;;;;;;;;;;1045661;28;4058;-50
2022/06/08 03:33:13;;;;;;;;;;;;;;;;;;1044545;28;2547;-52
2022/06/08 03:33:43;;;;;;;;;;;;;;;;;;1039121;28;4116;-51
2022/06/08 03:34:13;;;;;;;;;;;;;;;;;;1041987;28;1918;-51
2022/06/08 03:34:44;;;;;;;;;;;;;;;;;;1041661;28;3873;-49
2022/06/08 03:35:14;;;;;;;;;;;;;;;;;;1040329;28;3596;-48
2022/06/08 03:35:44;;;;;;;;;;;;;;;;;;1045093;28;4131;-51
2022/06/08 03:36:15;;;;;;;;;;;;;;;;;;1045507;28;2910;-49
2022/06/08 03:36:45;;;;;;;;;;;;;;;;;;1045460;28;3976;-49
2022/06/08 03:37:15;;;;;;;;;;;;;;;;;;1045450;28;2818;-51
2022/06/08 03:37:46;;;;;;;;;;;;;;;;;;1041179;28;3880;-53
2022/06/08 03:38:16;;;;;;;;;;;;;;;;;;1042293;28;1842;-50
2022/06/08 03:38:46;;;;;;;;;;;;;;;;;;1040001;28;3883;-52
2022/06/08 03:39:17;;;;;;;;;;;;;;;;;;1039582;28;3390;-50
2022/06/08 03:39:47;;;;;;;;;;;;;;;;;;1041088;28;3796;-52
2022/06/08 03:40:17;;;;;;;;;;;;;;;;;;1040516;28;3871;-49
2022/06/08 03:40:47;;;;;;;;;;;;;;;;;;1041272;28;4052;-48
2022/06/08 03:41:18;;;;;;;;;;;;;;;;;;1040302;28;2815;-50
2022/06/08 03:41:48;;;;;;;;;;;;;;;;;;1041519;28;4424;-49
2022/06/08 03:42:18;;;;;;;;;;;;;;;;;;1037069;28;1801;-51
2022/06/08 03:42:48;;;;;;;;;;;;;;;;;;1040787;28;3890;-50
2022/06/08 03:43:19;;;;;;;;;;;;;;;;;;1041436;28;1701;-49
2022/06/08 03:43:49;;;;;;;;;;;;;;;;;;1039789;28;4052;-49
2022/06/08 03:44:20;;;;;;;;;;;;;;;;;;1040661;28;2012;-51
2022/06/08 03:44:50;;;;;;;;;;;;;;;;;;1037192;28;4163;-48
2022/06/08 03:45:21;;;;;;;;;;;;;;;;;;1036100;28;3713;-51
2022/06/08 03:45:55;;;;;;;;;;;;;;;;;;1037378;28;3966;-50
2022/06/08 03:46:26;;;;;;;;;;;;;;;;;;1039148;28;3281;-49
2022/06/08 03:47:11;;;;;;;;;;;;;;;;;;1040973;28;4065;-53
2022/06/08 03:47:43;;;;;;;;;;;;;;;;;;1040958;28;3938;-51
2022/06/08 03:48:14;;;;;;;;;;;;;;;;;;1041887;28;2003;-48
2022/06/08 03:48:45;;;;;;;;;;;;;;;;;;1040304;28;4058;-52
2022/06/08 03:49:15;;;;;;;;;;;;;;;;;;1042191;28;2851;-49
2022/06/08 03:49:54;;;;;;;;;;;;;;;;;;1041531;28;3890;-51
2022/06/08 03:50:28;;;;;;;;;;;;;;;;;;1041028;28;3331;-51
2022/06/08 03:50:59;;;;;;;;;;;;;;;;;;1041339;28;3928;-49
2022/06/08 03:51:30;;;;;;;;;;;;;;;;;;1041967;28;2764;-51
2022/06/08 03:52:01;;;;;;;;;;;;;;;;;;1041385;28;3807;-51
2022/06/08 03:52:34;;;;;;;;;;;;;;;;;;1042626;28;3910;-48
2022/06/08 03:53:07;;;;;;;;;;;;;;;;;;1042369;28;2664;-50
2022/06/08 03:53:40;;;;;;;;;;;;;;;;;;1040888;28;3919;-49
2022/06/08 03:54:15;;;;;;;;;;;;;;;;;;1042049;28;2861;-50
2022/06/08 03:54:47;;;;;;;;;;;;;;;;;;1042291;28;4033;-50
2022/06/08 03:55:19;;;;;;;;;;;;;;;;;;1042737;28;2716;-52
2022/06/08 03:55:50;;;;;;;;;;;;;;;;;;1039657;28;4068;-53
2022/06/08 03:56:21;;;;;;;;;;;;;;;;;;1041556;28;2751;-49
2022/06/08 03:56:59;;;;;;;;;;;;;;;;;;1040791;28;3900;-50
2022/06/08 03:57:31;;;;;;;;;;;;;;;;;;1041703;28;3589;-50
2022/06/08 03:58:01;;;;;;;;;;;;;;;;;;1041950;28;4961;-49
2022/06/08 03:58:32;;;;;;;;;;;;;;;;;;1042565;28;4070;-49
2022/06/08 03:59:03;;;;;;;;;;;;;;;;;;1041320;28;3536;-50
2022/06/08 03:59:35;;;;;;;;;;;;;;;;;;1041600;28;4042;-50
2022/06/08 04:00:06;;;;;;;;;;;;;;;;;;1040913;28;2783;-49
2022/06/08 04:00:36;;;;;;;;;;;;;;;;;;1040587;28;3932;-49
2022/06/08 04:01:06;;;;;;;;;;;;;;;;;;1042524;28;3798;-48
2022/06/08 04:01:37;;;;;;;;;;;;;;;;;;1041601;28;4044;-48